Flight Track Log - Related Links

Times and Time Zones

All times are in EDT time to prevent confusion due to time zone crossing. See the XOJ549 flight status page for this flight to view local times or setup timezone preferences in your user account.

Time Position Orientation Groundspeed Altitude Reporting Facility
EDT Latitude Longitude Course Direction KTS MPH feet Rate Location/Type
Sun 03:00:40 PM 27.4000 -82.5667 318° Northwest 127 146 600  Level Tampa TRACON
Sun 03:01:10 PM 27.4167 -82.5833 318° Northwest 192 221 1,900 3,200 Climbing Tampa TRACON
Sun 03:03:00 PM 27.3326 -82.3915 138° Southeast  Level Estimated
Sun 03:03:10 PM 27.3572 -82.7158 138° Southeast 255 293 8,600  Level Miami Center
Sun 03:04:10 PM 27.2925 -82.7639 213° Southwest 285 328 11,700 2,433 Climbing Miami Center
Sun 03:06:10 PM 27.1356 -82.8794 213° Southwest 333 383 15,900 2,333 Climbing Miami Center
Sun 03:07:10 PM 27.0539 -82.9383 213° Southwest 351 404 18,700 2,850 Climbing Miami Center
Sun 03:08:10 PM 26.9739 -82.9992 214° Southwest 356 410 21,600 2,200 Climbing Miami Center
Sun 03:09:10 PM 26.8753 -83.0172 189° South 354 407 23,100 1,700 Climbing Miami Center
Sun 03:10:10 PM 26.7647 -83.0114 177° South 374 430 25,000 1,900 Climbing Miami Center
Sun 03:11:10 PM 26.6531 -82.9917 171° South 384 442 26,900 1,600 Climbing Miami Center
Sun 03:12:10 PM 26.5603 -82.9150 144° Southeast 387 445 28,200 1,150 Climbing Miami Center
Sun 03:13:10 PM 26.4636 -82.8289 141° Southeast 411 473 29,200 1,350 Climbing Miami Center
Sun 03:14:10 PM 26.3669 -82.7428 141° Southeast 433 498 30,900 1,500 Climbing Miami Center
Sun 03:15:10 PM 26.2703 -82.6547 141° Southeast 447 514 32,200 1,300 Climbing Miami Center
Sun 03:16:10 PM 26.2061 -82.5336 121° Southeast 440 506 33,500 1,250 Climbing Miami Center
Sun 03:17:10 PM 26.1747 -82.3700 102° East 447 514 34,700 750 Climbing Miami Center
Sun 03:18:10 PM 26.1406 -82.2275 105° East 460 529 35,000 150 Climbing Miami Center
Sun 03:19:10 PM 26.1103 -82.0806 103° East 473 544 35,000  Level Miami Center
Sun 03:20:10 PM 26.0778 -81.9358 104° East 478 550 35,000  Level Miami Center
Sun 03:21:10 PM 26.0494 -81.7867 102° East 478 550 35,000  Level Miami Center
Sun 03:22:10 PM 26.0147 -81.6419 105° East 478 550 35,000  Level Miami Center
Sun 03:23:10 PM 25.9839 -81.4975 103° East 478 550 35,000  Level Miami Center
Sun 03:24:10 PM 25.9508 -81.3531 104° East 478 550 35,000  Level Miami Center
Sun 03:25:10 PM 25.9194 -81.2108 104° East 478 550 35,000  Level Miami Center
Sun 03:26:10 PM 25.8883 -81.0667 103° East 478 550 35,000  Level Miami Center
Sun 03:27:10 PM 25.8567 -80.9272 104° East 478 550 35,000  Level Miami Center
Sun 03:28:10 PM 25.8250 -80.7853 104° East 478 550 35,000  Level Miami Center
Sun 03:29:10 PM 25.7933 -80.6389 103° East 478 550 35,000  Level Miami Center
Sun 03:30:10 PM 25.7614 -80.4972 104° East 473 544 35,000  Level Miami Center
Sun 03:31:10 PM 25.7314 -80.3647 104° East 484 557 35,000  Level Miami Center
Sun 03:32:10 PM 25.6950 -80.2231 106° East 484 557 35,000 -100 Level Miami Center
Sun 03:33:10 PM 25.6625 -80.0839 104° East 476 548 34,800 -750 Descending Miami Center
Sun 03:34:10 PM 25.6300 -79.9425 104° East 476 548 33,500 -1,400 Descending Miami Center
Sun 03:35:10 PM 25.5953 -79.7989 105° East 476 548 32,000 -1,600 Descending Miami Center
Sun 03:36:10 PM 25.5628 -79.6528 104° East 481 554 30,300 -1,700 Descending Miami Center
Sun 03:37:10 PM 25.5278 -79.5094 105° East 481 554 28,600 -1,800 Descending Miami Center
Sun 03:38:10 PM 25.5136 -79.3664 96° East 481 554 26,700 -1,950 Descending Miami Center
Sun 03:39:10 PM 25.5469 -79.2333 74° East 441 507 24,700 -2,000 Descending Miami Center
Sun 03:40:10 PM 25.5742 -79.1119 76° East 425 489 22,700 -2,000 Descending Miami Center
Sun 03:41:10 PM 25.5569 -78.9917 99° East 389 448 20,700 -1,850 Descending Miami Center
Sun 03:42:10 PM 25.5192 -78.8644 108° East 384 442 19,000 -1,050 Descending Miami Center
Sun 03:43:10 PM 25.4869 -78.7764 112° Southeast 384 442 18,600 -500 Descending Miami Center
Sun 03:44:10 PM 25.4425 -78.6422 110° East 384 442 18,000 -500 Descending Miami Center
Sun 03:45:10 PM 25.4125 -78.5383 108° East 384 442 17,600 -450 Descending Miami Center
Sun 03:46:10 PM 25.3761 -78.4275 110° East 389 448 17,100 -1,000 Descending Miami Center
Sun 03:47:10 PM 25.3458 -78.3236 108° East 376 433 15,600 -1,700 Descending Miami Center
Sun 03:48:10 PM 25.3133 -78.2289 111° Southeast 348 400 13,700 -1,950 Descending Miami Center
Sun 03:49:10 PM 25.2828 -78.1367 110° East 330 380 11,700 -2,000 Descending Miami Center

Login

Don't have an account? Register now (free) for customized features, flight alerts, and more!